createdAt,value
2023-05-21T00:00:20.766Z,14.77
2023-05-21T00:05:22.592Z,14.73
2023-05-21T00:10:24.357Z,14.71
2023-05-21T00:15:26.150Z,14.71
2023-05-21T00:20:29.432Z,14.73
2023-05-21T00:25:31.306Z,14.74
2023-05-21T00:30:33.028Z,14.73
2023-05-21T00:35:35.115Z,14.72
2023-05-21T00:40:37.162Z,14.70
2023-05-21T00:45:39.813Z,14.70
2023-05-21T00:50:42.184Z,14.71
2023-05-21T00:55:44.307Z,14.69
2023-05-21T01:00:46.963Z,14.66
2023-05-21T01:05:53.491Z,14.61
2023-05-21T01:10:56.852Z,14.56
2023-05-21T01:16:00.209Z,14.54
2023-05-21T01:21:02.410Z,14.55
2023-05-21T01:26:04.311Z,14.53
2023-05-21T01:31:27.574Z,14.49
2023-05-21T01:36:34.575Z,14.47
2023-05-21T01:41:41.226Z,14.45
2023-05-21T01:46:43.130Z,14.43
2023-05-21T01:51:45.820Z,14.40
2023-05-21T01:56:48.055Z,14.37
2023-05-21T02:01:49.944Z,14.34
2023-05-21T02:06:51.974Z,14.31
2023-05-21T02:11:54.017Z,14.28
2023-05-21T02:16:56.860Z,14.25
2023-05-21T02:21:58.553Z,14.23
2023-05-21T02:27:00.265Z,14.21
2023-05-21T02:32:02.175Z,14.20
2023-05-21T02:37:04.196Z,14.19
2023-05-21T02:42:05.983Z,14.16
2023-05-21T02:47:10.334Z,14.12
2023-05-21T02:52:13.021Z,14.12
2023-05-21T02:57:15.352Z,14.15
2023-05-21T03:02:17.598Z,14.18
2023-05-21T03:07:19.940Z,14.23
2023-05-21T03:12:21.950Z,14.29
2023-05-21T03:17:23.914Z,14.35
2023-05-21T03:22:25.763Z,14.40
2023-05-21T03:27:28.129Z,14.44
2023-05-21T03:32:30.617Z,14.46
2023-05-21T03:37:33.031Z,14.49
2023-05-21T03:42:35.599Z,14.48
2023-05-21T03:47:37.526Z,14.50
2023-05-21T03:52:41.193Z,14.53
2023-05-21T03:57:43.122Z,14.63
2023-05-21T04:02:45.130Z,14.84
2023-05-21T04:07:48.592Z,15.08
2023-05-21T04:12:52.448Z,15.31
2023-05-21T04:17:55.287Z,15.56
2023-05-21T04:22:57.352Z,15.83
2023-05-21T04:28:00.247Z,16.04
2023-05-21T04:33:03.074Z,16.12
2023-05-21T04:38:05.818Z,16.13
2023-05-21T04:43:08.281Z,16.21
2023-05-21T04:48:10.282Z,16.34
2023-05-21T04:53:12.336Z,16.47
2023-05-21T04:58:14.746Z,16.54
2023-05-21T05:03:16.673Z,16.64
2023-05-21T05:08:18.946Z,16.78
2023-05-21T05:13:20.947Z,16.91
2023-05-21T05:18:23.281Z,17.07
2023-05-21T05:23:25.184Z,17.21
2023-05-21T05:28:27.771Z,17.42
2023-05-21T05:33:29.670Z,17.56
2023-05-21T05:38:31.457Z,17.77
2023-05-21T05:43:33.559Z,18.02
2023-05-21T05:48:35.627Z,18.20
2023-05-21T05:53:37.892Z,18.33
2023-05-21T05:58:39.977Z,18.36
2023-05-21T06:03:45.334Z,18.48
2023-05-21T06:08:49.750Z,18.67
2023-05-21T06:13:51.658Z,18.79
2023-05-21T06:18:53.426Z,18.88
2023-05-21T06:23:55.516Z,19.08
2023-05-21T06:28:57.471Z,19.34
2023-05-21T06:34:00.673Z,19.57
2023-05-21T06:39:03.782Z,19.71
2023-05-21T06:44:06.113Z,19.80
2023-05-21T06:49:14.602Z,19.95
2023-05-21T06:54:17.599Z,20.12
2023-05-21T06:59:19.677Z,20.36
2023-05-21T07:04:21.427Z,20.59
2023-05-21T07:09:23.274Z,20.78
2023-05-21T07:14:26.562Z,20.93
2023-05-21T07:19:28.583Z,21.07
2023-05-21T07:24:30.563Z,21.25
2023-05-21T07:29:34.155Z,21.44
2023-05-21T07:34:36.165Z,21.66
2023-05-21T07:39:38.804Z,21.84
2023-05-21T07:44:41.036Z,22.05
2023-05-21T07:49:42.910Z,22.24
2023-05-21T07:54:45.732Z,22.42
2023-05-21T07:59:47.901Z,22.60
2023-05-21T08:04:49.951Z,22.73
2023-05-21T08:09:53.821Z,22.87
2023-05-21T08:14:57.691Z,23.00
2023-05-21T08:19:59.502Z,23.05
2023-05-21T08:25:03.446Z,23.14
2023-05-21T08:30:06.872Z,23.28
2023-05-21T08:35:09.873Z,23.43
2023-05-21T08:40:31.103Z,23.54
2023-05-21T08:45:38.287Z,23.63
2023-05-21T08:50:41.583Z,23.78
2023-05-21T08:55:51.746Z,23.91
2023-05-21T09:00:56.344Z,24.05
2023-05-21T09:06:00.759Z,24.16
2023-05-21T09:11:03.796Z,24.21
2023-05-21T09:16:19.234Z,24.19
2023-05-21T09:21:28.858Z,24.38
2023-05-21T09:26:34.343Z,24.46
2023-05-21T09:31:44.053Z,24.45
2023-05-21T09:36:49.317Z,24.44
2023-05-21T09:41:51.229Z,24.57
2023-05-21T09:46:58.811Z,24.69
2023-05-21T09:52:00.636Z,24.88
2023-05-21T09:57:02.971Z,24.98
2023-05-21T10:02:16.522Z,25.11
2023-05-21T10:07:25.906Z,25.12
2023-05-21T10:12:31.017Z,25.16
2023-05-21T10:17:33.362Z,25.06
2023-05-21T10:22:35.753Z,25.04
2023-05-21T10:27:37.692Z,25.08
2023-05-21T10:32:42.169Z,25.18
2023-05-21T10:37:45.605Z,25.26
2023-05-21T10:43:13.411Z,25.24
2023-05-21T10:48:46.600Z,25.23
2023-05-21T10:53:59.339Z,25.35
2023-05-21T10:59:18.621Z,25.50
2023-05-21T11:04:26.861Z,25.62
2023-05-21T11:09:28.637Z,25.71
2023-05-21T11:14:42.962Z,25.81
2023-05-21T11:19:48.045Z,25.91
2023-05-21T11:24:51.479Z,25.96
2023-05-21T11:29:55.819Z,26.04
2023-05-21T11:35:02.158Z,26.10
2023-05-21T11:40:18.398Z,26.15
2023-05-21T11:45:23.480Z,26.17
2023-05-21T11:50:25.841Z,26.10
2023-05-21T11:55:27.925Z,26.16
2023-05-21T12:00:29.808Z,26.18
2023-05-21T12:05:31.591Z,26.28
2023-05-21T12:10:33.494Z,26.24
2023-05-21T12:15:35.759Z,26.22
2023-05-21T12:20:37.980Z,26.07
2023-05-21T12:25:40.078Z,25.99
2023-05-21T12:30:41.985Z,26.03
2023-05-21T12:35:50.269Z,25.88
2023-05-21T12:40:52.330Z,25.77
2023-05-21T12:45:54.213Z,25.94
2023-05-21T12:50:59.209Z,25.98
2023-05-21T12:56:11.690Z,25.92
2023-05-21T13:01:14.234Z,25.90
2023-05-21T13:06:15.998Z,25.93
2023-05-21T13:11:17.672Z,25.91
2023-05-21T13:16:22.195Z,25.94
2023-05-21T13:21:24.118Z,25.92
2023-05-21T13:26:25.898Z,25.94
2023-05-21T13:31:28.656Z,25.93
2023-05-21T13:36:31.343Z,25.94
2023-05-21T13:41:33.549Z,25.81
2023-05-21T13:46:39.618Z,25.83
2023-05-21T13:51:41.735Z,25.84
2023-05-21T13:56:43.493Z,25.88
2023-05-21T14:01:45.885Z,25.93
2023-05-21T14:06:48.259Z,25.99
2023-05-21T14:11:50.136Z,26.06
2023-05-21T14:16:52.521Z,26.11
2023-05-21T14:21:54.496Z,26.14
2023-05-21T14:26:56.319Z,26.15
2023-05-21T14:31:58.063Z,25.96
2023-05-21T14:36:59.884Z,25.89
2023-05-21T14:42:04.798Z,25.95
2023-05-21T14:47:06.551Z,26.02
2023-05-21T14:52:08.355Z,25.94
2023-05-21T14:57:10.137Z,26.02
2023-05-21T15:02:11.936Z,25.96
2023-05-21T15:07:13.897Z,25.99
2023-05-21T15:12:15.904Z,25.94
2023-05-21T15:17:17.626Z,25.88
2023-05-21T15:22:19.459Z,25.95
2023-05-21T15:27:21.182Z,25.83
2023-05-21T15:32:23.119Z,25.80
2023-05-21T15:37:25.351Z,25.65
2023-05-21T15:42:31.235Z,25.45
2023-05-21T15:47:33.049Z,25.53
2023-05-21T15:52:34.834Z,25.47
2023-05-21T15:57:36.622Z,25.41
2023-05-21T16:02:38.632Z,25.35
2023-05-21T16:07:40.518Z,25.31
2023-05-21T16:12:42.514Z,25.24
2023-05-21T16:17:44.208Z,25.19
2023-05-21T16:22:45.945Z,25.09
2023-05-21T16:27:48.816Z,25.03
2023-05-21T16:32:50.629Z,24.87
2023-05-21T16:37:52.473Z,24.62
2023-05-21T16:42:54.216Z,24.47
2023-05-21T16:47:55.977Z,24.41
2023-05-21T16:52:59.256Z,24.33
2023-05-21T16:58:02.455Z,24.23
2023-05-21T17:03:04.493Z,24.10
2023-05-21T17:08:06.524Z,23.91
2023-05-21T17:13:20.758Z,23.63
2023-05-21T17:18:23.711Z,23.39
2023-05-21T17:23:25.501Z,23.23
2023-05-21T17:28:27.381Z,23.04
2023-05-21T17:33:29.179Z,22.83
2023-05-21T17:38:30.977Z,22.56
2023-05-21T17:43:32.723Z,22.27
2023-05-21T17:48:34.694Z,21.98
2023-05-21T17:53:36.456Z,21.75
2023-05-21T17:58:38.288Z,21.53
2023-05-21T18:03:40.170Z,21.29
2023-05-21T18:08:42.013Z,21.03
2023-05-21T18:13:43.696Z,20.76
2023-05-21T18:18:45.442Z,20.51
2023-05-21T18:23:47.316Z,20.26
2023-05-21T18:28:49.840Z,20.01
2023-05-21T18:33:51.868Z,19.74
2023-05-21T18:38:53.637Z,19.46
2023-05-21T18:43:55.437Z,19.16
2023-05-21T18:48:59.463Z,18.84
2023-05-21T18:54:01.257Z,18.52
2023-05-21T18:59:03.089Z,18.20
2023-05-21T19:04:05.430Z,17.87
2023-05-21T19:09:07.250Z,17.56
2023-05-21T19:14:09.050Z,17.31
2023-05-21T19:19:10.781Z,17.07
2023-05-21T19:24:12.664Z,16.86
2023-05-21T19:29:14.420Z,16.67
2023-05-21T19:34:16.361Z,16.50
2023-05-21T19:39:18.214Z,16.34
2023-05-21T19:44:19.986Z,16.21
2023-05-21T19:49:21.935Z,16.13
2023-05-21T19:54:24.343Z,16.08
2023-05-21T19:59:26.426Z,16.08
2023-05-21T20:04:28.208Z,16.11
2023-05-21T20:09:29.897Z,16.16
2023-05-21T20:14:34.344Z,16.15
2023-05-21T20:19:37.901Z,16.10
2023-05-21T20:24:39.894Z,16.02
2023-05-21T20:29:42.934Z,15.97
2023-05-21T20:34:58.811Z,15.94
2023-05-21T20:40:06.787Z,15.92
2023-05-21T20:45:09.548Z,16.06
2023-05-21T20:50:12.272Z,16.20
2023-05-21T20:55:14.627Z,16.25
2023-05-21T21:00:17.159Z,16.25
2023-05-21T21:05:20.046Z,16.23
2023-05-21T21:10:23.633Z,16.18
2023-05-21T21:15:41.391Z,16.14
2023-05-21T21:20:43.720Z,16.06
2023-05-21T21:25:45.860Z,15.97
2023-05-21T21:30:47.615Z,15.87
2023-05-21T21:35:49.576Z,15.77
2023-05-21T21:40:54.530Z,15.67
2023-05-21T21:45:57.794Z,15.58
2023-05-21T21:51:01.895Z,15.47
2023-05-21T21:56:04.954Z,15.39
2023-05-21T22:01:06.789Z,15.32
2023-05-21T22:06:08.858Z,15.26
2023-05-21T22:11:11.031Z,15.20
2023-05-21T22:16:13.027Z,15.11
2023-05-21T22:21:18.377Z,15.03
2023-05-21T22:26:20.348Z,14.90
2023-05-21T22:31:22.193Z,14.79
2023-05-21T22:36:23.977Z,14.66
2023-05-21T22:41:25.958Z,14.52
2023-05-21T22:46:27.712Z,14.40
2023-05-21T22:51:34.566Z,14.26
2023-05-21T22:56:36.746Z,14.12
2023-05-21T23:01:38.858Z,13.97
2023-05-21T23:06:42.277Z,13.85
2023-05-21T23:11:44.686Z,13.72
2023-05-21T23:16:48.888Z,13.59
2023-05-21T23:21:50.699Z,13.45
2023-05-21T23:26:52.559Z,13.32
2023-05-21T23:31:56.389Z,13.23
2023-05-21T23:37:00.275Z,13.18
2023-05-21T23:42:03.166Z,13.12
2023-05-21T23:47:25.927Z,13.06
2023-05-21T23:52:27.665Z,12.99
2023-05-21T23:57:29.421Z,12.97
